KLM1983 EHAM-LYBE
Flight info
| Callsign | KLM1983 |
|---|---|
| Flight time | 1h 49m |
| Altitude | 35000 |
| Route | EDUPO Z739 MISGO DCT TIVUN/N0454F370 DCT ESAMA DCT OSBIT DCT TENLO DCT LAMSI DCT SITNI DCT SASAL DCT SOGMO DCT BABIT DCT RIGMU |
| Aircraft | B738/M-SDE2E3FGHIRWXY/LB1 |
Departure
| Time | 2026-05-04 12:36 |
|---|---|
| Airport | Amsterdam Airport Schiphol (EHAM) |
Arrival
| Time | 2026-05-04 14:25 |
|---|---|
| Airport | Belgrade Nikola Tesla Airport (LYBE) |
| Time | Latitude | Longitude | Altitude | Speed | Heading |
|---|---|---|---|---|---|
| 2026-05-04 12:21 | 52.30896 | 4.77303 | -2 ft | 0 kts | 3° |
| 2026-05-04 12:29 | 52.30895 | 4.77303 | -2 ft | 2 kts | 3° |
| 2026-05-04 12:30 | 52.30870 | 4.77297 | -2 ft | 4 kts | 18° |
| 2026-05-04 12:30 | 52.30848 | 4.77277 | -2 ft | 4 kts | 53° |
| 2026-05-04 12:30 | 52.30841 | 4.77250 | -2 ft | 0 kts | 92° |
| 2026-05-04 12:33 | 52.30841 | 4.77251 | -2 ft | 0 kts | 92° |
| 2026-05-04 12:33 | 52.30841 | 4.77276 | -2 ft | 5 kts | 92° |
| 2026-05-04 12:33 | 52.30838 | 4.77372 | -2 ft | 12 kts | 92° |
| 2026-05-04 12:33 | 52.30782 | 4.77465 | -2 ft | 16 kts | 189° |
| 2026-05-04 12:34 | 52.30661 | 4.77466 | -2 ft | 18 kts | 155° |
| 2026-05-04 12:34 | 52.30550 | 4.77558 | -2 ft | 18 kts | 153° |
| 2026-05-04 12:34 | 52.30469 | 4.77628 | -2 ft | 12 kts | 150° |
| 2026-05-04 12:34 | 52.30402 | 4.77607 | -3 ft | 12 kts | 240° |
| 2026-05-04 12:35 | 52.30336 | 4.77435 | -3 ft | 35 kts | 239° |
| 2026-05-04 12:35 | 52.30065 | 4.76727 | -3 ft | 109 kts | 238° |
| 2026-05-04 12:35 | 52.29555 | 4.75399 | 6 ft | 166 kts | 240° |
| 2026-05-04 12:35 | 52.29003 | 4.73969 | 458 ft | 177 kts | 239° |
| 2026-05-04 12:36 | 52.28319 | 4.72192 | 1335 ft | 180 kts | 239° |
| 2026-05-04 12:36 | 52.27652 | 4.70450 | 2160 ft | 187 kts | 238° |
| 2026-05-04 12:36 | 52.26805 | 4.68682 | 2679 ft | 206 kts | 219° |
| 2026-05-04 12:36 | 52.26416 | 4.68237 | 2826 ft | 210 kts | 209° |
| 2026-05-04 12:37 | 52.25865 | 4.67838 | 3001 ft | 217 kts | 197° |
| 2026-05-04 12:37 | 52.24328 | 4.67847 | 3395 ft | 235 kts | 159° |
| 2026-05-04 12:38 | 52.23021 | 4.69504 | 4012 ft | 246 kts | 124° |
| 2026-05-04 12:38 | 52.22217 | 4.72010 | 4918 ft | 245 kts | 117° |
| 2026-05-04 12:38 | 52.21474 | 4.74422 | 5974 ft | 239 kts | 117° |
| 2026-05-04 12:38 | 52.20721 | 4.76841 | 6715 ft | 244 kts | 118° |
| 2026-05-04 12:39 | 52.19866 | 4.79379 | 7062 ft | 268 kts | 121° |
| 2026-05-04 12:39 | 52.18900 | 4.82084 | 7644 ft | 280 kts | 121° |
| 2026-05-04 12:39 | 52.17919 | 4.84864 | 8457 ft | 283 kts | 116° |
| 2026-05-04 12:39 | 52.17480 | 4.87978 | 9241 ft | 289 kts | 89° |
| 2026-05-04 12:40 | 52.17850 | 4.91223 | 10037 ft | 293 kts | 74° |
| 2026-05-04 12:40 | 52.18457 | 4.94428 | 10515 ft | 309 kts | 72° |
| 2026-05-04 12:40 | 52.19150 | 4.97934 | 10689 ft | 334 kts | 72° |
| 2026-05-04 12:40 | 52.19879 | 5.01641 | 10870 ft | 357 kts | 72° |
| 2026-05-04 12:41 | 52.20647 | 5.05620 | 11188 ft | 373 kts | 73° |
| 2026-05-04 12:41 | 52.21418 | 5.09671 | 11766 ft | 380 kts | 73° |
| 2026-05-04 12:41 | 52.22201 | 5.13837 | 12458 ft | 384 kts | 73° |
| 2026-05-04 12:41 | 52.22991 | 5.18060 | 13137 ft | 389 kts | 73° |
| 2026-05-04 12:42 | 52.23632 | 5.22330 | 13775 ft | 395 kts | 85° |
| 2026-05-04 12:42 | 52.23392 | 5.26807 | 14369 ft | 396 kts | 106° |
| 2026-05-04 12:42 | 52.22286 | 5.30876 | 15042 ft | 396 kts | 124° |
| 2026-05-04 12:42 | 52.20702 | 5.34567 | 15704 ft | 398 kts | 127° |
| 2026-05-04 12:43 | 52.19087 | 5.38164 | 16279 ft | 402 kts | 128° |
| 2026-05-04 12:43 | 52.17443 | 5.41822 | 16863 ft | 406 kts | 128° |
| 2026-05-04 12:43 | 52.15767 | 5.45596 | 17454 ft | 410 kts | 127° |
| 2026-05-04 12:43 | 52.14099 | 5.49397 | 18042 ft | 413 kts | 127° |
| 2026-05-04 12:44 | 52.12441 | 5.53195 | 18572 ft | 417 kts | 127° |
| 2026-05-04 12:44 | 52.10753 | 5.57058 | 19089 ft | 419 kts | 127° |
| 2026-05-04 12:44 | 52.09045 | 5.60960 | 19616 ft | 421 kts | 128° |
| 2026-05-04 12:44 | 52.07356 | 5.64808 | 20128 ft | 424 kts | 128° |
| 2026-05-04 12:45 | 52.05604 | 5.68716 | 20660 ft | 425 kts | 131° |
| 2026-05-04 12:45 | 52.03725 | 5.72365 | 21162 ft | 427 kts | 134° |
| 2026-05-04 12:45 | 52.01727 | 5.75988 | 21677 ft | 429 kts | 135° |
| 2026-05-04 12:45 | 51.99754 | 5.79581 | 22156 ft | 431 kts | 135° |
| 2026-05-04 12:46 | 51.97756 | 5.83283 | 22627 ft | 434 kts | 134° |
| 2026-05-04 12:46 | 51.95785 | 5.86966 | 23063 ft | 437 kts | 135° |
| 2026-05-04 12:46 | 51.93794 | 5.90679 | 23497 ft | 439 kts | 135° |
| 2026-05-04 12:46 | 51.91778 | 5.94431 | 23866 ft | 442 kts | 135° |
| 2026-05-04 12:47 | 51.89743 | 5.98215 | 24210 ft | 444 kts | 135° |
| 2026-05-04 12:47 | 51.87726 | 6.01958 | 24573 ft | 446 kts | 135° |
| 2026-05-04 12:47 | 51.85669 | 6.05766 | 24929 ft | 448 kts | 135° |
| 2026-05-04 12:47 | 51.83623 | 6.09533 | 25270 ft | 450 kts | 136° |
| 2026-05-04 12:48 | 51.81534 | 6.13354 | 25600 ft | 452 kts | 136° |
| 2026-05-04 12:48 | 51.79463 | 6.17134 | 25924 ft | 454 kts | 136° |
| 2026-05-04 12:48 | 51.77359 | 6.20973 | 26239 ft | 457 kts | 136° |
| 2026-05-04 12:48 | 51.75238 | 6.24844 | 26545 ft | 459 kts | 136° |
| 2026-05-04 12:49 | 51.73137 | 6.28678 | 26846 ft | 461 kts | 136° |
| 2026-05-04 12:49 | 51.70993 | 6.32590 | 27138 ft | 463 kts | 136° |
| 2026-05-04 12:49 | 51.68875 | 6.36452 | 27422 ft | 465 kts | 136° |
| 2026-05-04 12:49 | 51.66712 | 6.40390 | 27703 ft | 467 kts | 136° |
| 2026-05-04 12:50 | 51.64567 | 6.44286 | 27983 ft | 469 kts | 137° |
| 2026-05-04 12:50 | 51.62389 | 6.48232 | 28252 ft | 470 kts | 137° |
| 2026-05-04 12:50 | 51.60231 | 6.52136 | 28611 ft | 470 kts | 137° |
| 2026-05-04 12:50 | 51.58052 | 6.56076 | 29071 ft | 468 kts | 137° |
| 2026-05-04 12:51 | 51.55892 | 6.59977 | 29530 ft | 466 kts | 137° |
| 2026-05-04 12:51 | 51.53757 | 6.63827 | 29922 ft | 465 kts | 137° |
| 2026-05-04 12:51 | 51.51622 | 6.67669 | 30238 ft | 465 kts | 137° |
| 2026-05-04 12:51 | 51.49464 | 6.71546 | 30555 ft | 464 kts | 137° |
| 2026-05-04 12:52 | 51.47309 | 6.75414 | 30887 ft | 463 kts | 138° |
| 2026-05-04 12:52 | 51.45181 | 6.79231 | 31203 ft | 462 kts | 138° |
| 2026-05-04 12:52 | 51.43006 | 6.83122 | 31505 ft | 462 kts | 138° |
| 2026-05-04 12:52 | 51.40883 | 6.86926 | 31807 ft | 462 kts | 137° |
| 2026-05-04 12:53 | 51.38905 | 6.90973 | 32100 ft | 466 kts | 131° |
| 2026-05-04 12:53 | 51.37048 | 6.95271 | 32406 ft | 467 kts | 130° |
| 2026-05-04 12:53 | 51.35257 | 6.99564 | 32705 ft | 467 kts | 130° |
| 2026-05-04 12:53 | 51.33452 | 7.03915 | 32998 ft | 467 kts | 130° |
| 2026-05-04 12:54 | 51.31668 | 7.08183 | 33257 ft | 466 kts | 130° |
| 2026-05-04 12:54 | 51.29842 | 7.12504 | 33524 ft | 466 kts | 130° |
| 2026-05-04 12:54 | 51.28036 | 7.16740 | 33793 ft | 466 kts | 131° |
| 2026-05-04 12:54 | 51.26202 | 7.21015 | 34050 ft | 465 kts | 131° |
| 2026-05-04 12:55 | 51.24361 | 7.25285 | 34271 ft | 465 kts | 131° |
| 2026-05-04 12:55 | 51.22538 | 7.29505 | 34474 ft | 465 kts | 131° |
| 2026-05-04 12:55 | 51.20685 | 7.33786 | 34672 ft | 465 kts | 131° |
| 2026-05-04 12:55 | 51.18855 | 7.38007 | 34886 ft | 465 kts | 130° |
| 2026-05-04 12:56 | 51.17015 | 7.42246 | 34978 ft | 467 kts | 130° |
| 2026-05-04 12:56 | 51.13320 | 7.50743 | 34971 ft | 467 kts | 130° |
| 2026-05-04 12:57 | 51.09636 | 7.59194 | 34974 ft | 464 kts | 130° |
| 2026-05-04 12:57 | 51.05948 | 7.67622 | 34979 ft | 461 kts | 130° |
| 2026-05-04 12:58 | 51.02307 | 7.75912 | 34975 ft | 460 kts | 131° |
| 2026-05-04 12:58 | 50.98631 | 7.84259 | 34984 ft | 460 kts | 131° |
| 2026-05-04 12:59 | 50.94980 | 7.92524 | 34989 ft | 462 kts | 131° |
| 2026-05-04 12:59 | 50.91045 | 8.00517 | 34988 ft | 454 kts | 141° |
| 2026-05-04 13:00 | 50.86494 | 8.07433 | 34998 ft | 454 kts | 143° |
| 2026-05-04 13:00 | 50.81875 | 8.14329 | 34995 ft | 456 kts | 142° |
| 2026-05-04 13:01 | 50.77269 | 8.21277 | 34983 ft | 459 kts | 142° |
| 2026-05-04 13:01 | 50.72662 | 8.28260 | 34986 ft | 460 kts | 142° |
| 2026-05-04 13:02 | 50.68608 | 8.34398 | 34988 ft | 461 kts | 142° |
| 2026-05-04 13:02 | 50.64127 | 8.41163 | 34989 ft | 461 kts | 142° |
| 2026-05-04 13:03 | 50.59495 | 8.48134 | 34985 ft | 462 kts | 142° |
| 2026-05-04 13:03 | 50.54850 | 8.55102 | 34973 ft | 462 kts | 142° |
| 2026-05-04 13:04 | 50.50195 | 8.62067 | 34978 ft | 461 kts | 142° |
| 2026-05-04 13:04 | 50.45556 | 8.68988 | 34980 ft | 460 kts | 142° |
| 2026-05-04 13:05 | 50.40941 | 8.75857 | 34975 ft | 460 kts | 142° |
| 2026-05-04 13:05 | 50.37062 | 8.81614 | 34974 ft | 459 kts | 142° |
| 2026-05-04 13:05 | 50.34226 | 8.86628 | 34975 ft | 466 kts | 130° |
| 2026-05-04 13:06 | 50.33041 | 8.89462 | 34974 ft | 470 kts | 124° |
| 2026-05-04 13:06 | 50.30269 | 8.98752 | 34974 ft | 473 kts | 118° |
| 2026-05-04 13:07 | 50.27636 | 9.08163 | 34974 ft | 473 kts | 118° |
| 2026-05-04 13:07 | 50.24940 | 9.17573 | 34982 ft | 472 kts | 119° |
| 2026-05-04 13:08 | 50.22221 | 9.26888 | 34981 ft | 472 kts | 119° |
| 2026-05-04 13:08 | 50.19488 | 9.36188 | 34982 ft | 473 kts | 119° |
| 2026-05-04 13:09 | 50.16746 | 9.45490 | 34985 ft | 473 kts | 119° |
| 2026-05-04 13:09 | 50.13979 | 9.54845 | 34988 ft | 474 kts | 119° |
| 2026-05-04 13:10 | 50.11219 | 9.64147 | 34990 ft | 474 kts | 119° |
| 2026-05-04 13:10 | 50.08437 | 9.73489 | 34982 ft | 475 kts | 119° |
| 2026-05-04 13:11 | 50.05383 | 9.82525 | 34986 ft | 471 kts | 127° |
| 2026-05-04 13:11 | 50.01738 | 9.91042 | 34978 ft | 470 kts | 128° |
| 2026-05-04 13:12 | 49.98083 | 9.99441 | 34981 ft | 470 kts | 128° |
| 2026-05-04 13:12 | 49.94452 | 10.07894 | 34970 ft | 471 kts | 128° |
| 2026-05-04 13:13 | 49.90847 | 10.16339 | 34982 ft | 471 kts | 128° |
| 2026-05-04 13:13 | 49.87246 | 10.24763 | 34982 ft | 470 kts | 128° |
| 2026-05-04 13:14 | 49.83612 | 10.33233 | 34969 ft | 470 kts | 128° |
| 2026-05-04 13:14 | 49.80005 | 10.41610 | 34974 ft | 469 kts | 128° |
| 2026-05-04 13:15 | 49.76362 | 10.50038 | 34970 ft | 469 kts | 127° |
| 2026-05-04 13:15 | 49.72746 | 10.58382 | 34970 ft | 469 kts | 128° |
| 2026-05-04 13:16 | 49.69121 | 10.66720 | 34978 ft | 468 kts | 128° |
| 2026-05-04 13:16 | 49.65467 | 10.75099 | 34977 ft | 468 kts | 128° |
| 2026-05-04 13:17 | 49.61849 | 10.83367 | 34983 ft | 468 kts | 128° |
| 2026-05-04 13:17 | 49.58200 | 10.91684 | 34990 ft | 468 kts | 128° |
| 2026-05-04 13:18 | 49.54557 | 10.99964 | 34996 ft | 468 kts | 128° |
| 2026-05-04 13:18 | 49.51091 | 11.08525 | 34992 ft | 471 kts | 121° |
| 2026-05-04 13:19 | 49.48162 | 11.17496 | 34991 ft | 472 kts | 119° |
| 2026-05-04 13:19 | 49.45266 | 11.26570 | 34987 ft | 472 kts | 119° |
| 2026-05-04 13:20 | 49.42336 | 11.35568 | 34985 ft | 472 kts | 120° |
| 2026-05-04 13:20 | 49.39369 | 11.44537 | 34979 ft | 472 kts | 120° |
| 2026-05-04 13:21 | 49.36389 | 11.53479 | 34975 ft | 471 kts | 120° |
| 2026-05-04 13:21 | 49.33394 | 11.62439 | 34980 ft | 471 kts | 120° |
| 2026-05-04 13:22 | 49.30407 | 11.71352 | 34975 ft | 471 kts | 120° |
| 2026-05-04 13:22 | 49.27407 | 11.80270 | 34980 ft | 471 kts | 120° |
| 2026-05-04 13:23 | 49.24407 | 11.89159 | 34986 ft | 471 kts | 120° |
| 2026-05-04 13:23 | 49.21379 | 11.98096 | 34975 ft | 471 kts | 120° |
| 2026-05-04 13:24 | 49.18362 | 12.06972 | 34984 ft | 471 kts | 120° |
| 2026-05-04 13:24 | 49.15343 | 12.15825 | 34968 ft | 472 kts | 120° |
| 2026-05-04 13:25 | 49.10779 | 12.29147 | 34968 ft | 473 kts | 121° |
| 2026-05-04 13:25 | 49.07712 | 12.38064 | 34963 ft | 473 kts | 121° |
| 2026-05-04 13:26 | 49.04655 | 12.46916 | 34963 ft | 474 kts | 121° |
| 2026-05-04 13:26 | 49.01565 | 12.55838 | 34957 ft | 474 kts | 121° |
| 2026-05-04 13:27 | 48.98489 | 12.64686 | 34964 ft | 474 kts | 121° |
| 2026-05-04 13:27 | 48.95410 | 12.73513 | 34964 ft | 474 kts | 121° |
| 2026-05-04 13:28 | 48.92299 | 12.82402 | 34963 ft | 474 kts | 121° |
| 2026-05-04 13:28 | 48.89200 | 12.91226 | 34964 ft | 474 kts | 121° |
| 2026-05-04 13:29 | 48.86095 | 13.00034 | 34964 ft | 474 kts | 121° |
| 2026-05-04 13:29 | 48.82965 | 13.08887 | 34958 ft | 474 kts | 121° |
| 2026-05-04 13:30 | 48.79850 | 13.17666 | 34959 ft | 473 kts | 121° |
| 2026-05-04 13:30 | 48.76734 | 13.26420 | 34958 ft | 473 kts | 121° |
| 2026-05-04 13:31 | 48.73593 | 13.35214 | 34954 ft | 473 kts | 121° |
| 2026-05-04 13:31 | 48.70459 | 13.43960 | 34957 ft | 473 kts | 121° |
| 2026-05-04 13:32 | 48.67326 | 13.52680 | 34951 ft | 473 kts | 121° |
| 2026-05-04 13:32 | 48.64033 | 13.61320 | 34952 ft | 472 kts | 126° |
| 2026-05-04 13:33 | 48.60251 | 13.69397 | 34957 ft | 472 kts | 128° |
| 2026-05-04 13:33 | 48.56386 | 13.77387 | 34960 ft | 472 kts | 128° |
| 2026-05-04 13:34 | 48.52537 | 13.85446 | 34952 ft | 473 kts | 128° |
| 2026-05-04 13:34 | 48.48704 | 13.93537 | 34950 ft | 473 kts | 128° |
| 2026-05-04 13:35 | 48.42974 | 14.05623 | 34943 ft | 473 kts | 128° |
| 2026-05-04 13:36 | 48.39154 | 14.13644 | 34948 ft | 473 kts | 128° |
| 2026-05-04 13:36 | 48.35319 | 14.21672 | 34939 ft | 474 kts | 128° |
| 2026-05-04 13:37 | 48.31459 | 14.29726 | 34937 ft | 473 kts | 128° |
| 2026-05-04 13:37 | 48.27624 | 14.37704 | 34944 ft | 473 kts | 128° |
| 2026-05-04 13:38 | 48.23756 | 14.45730 | 34939 ft | 473 kts | 128° |
| 2026-05-04 13:38 | 48.19911 | 14.53682 | 34954 ft | 473 kts | 128° |
| 2026-05-04 13:39 | 48.16050 | 14.61647 | 34939 ft | 473 kts | 128° |
| 2026-05-04 13:39 | 48.12180 | 14.69606 | 34948 ft | 472 kts | 128° |
| 2026-05-04 13:40 | 48.08308 | 14.77549 | 34954 ft | 472 kts | 127° |
| 2026-05-04 13:40 | 48.04440 | 14.85491 | 34949 ft | 472 kts | 127° |
| 2026-05-04 13:41 | 48.00714 | 14.93586 | 34956 ft | 473 kts | 125° |
| 2026-05-04 13:41 | 47.97036 | 15.01727 | 34959 ft | 473 kts | 125° |
| 2026-05-04 13:42 | 47.91482 | 15.13886 | 34960 ft | 473 kts | 126° |
| 2026-05-04 13:42 | 47.87759 | 15.21964 | 34961 ft | 473 kts | 126° |
| 2026-05-04 13:43 | 47.84055 | 15.29971 | 34971 ft | 472 kts | 126° |
| 2026-05-04 13:43 | 47.80319 | 15.38023 | 34980 ft | 472 kts | 126° |
| 2026-05-04 13:44 | 47.76584 | 15.46052 | 34983 ft | 472 kts | 126° |
| 2026-05-04 13:44 | 47.72842 | 15.54076 | 34990 ft | 472 kts | 125° |
| 2026-05-04 13:45 | 47.69091 | 15.62093 | 34970 ft | 472 kts | 125° |
| 2026-05-04 13:45 | 47.65337 | 15.70093 | 34997 ft | 473 kts | 126° |
| 2026-05-04 13:46 | 47.61564 | 15.78112 | 34990 ft | 474 kts | 126° |
| 2026-05-04 13:46 | 47.57782 | 15.86124 | 35000 ft | 475 kts | 126° |
| 2026-05-04 13:47 | 47.53991 | 15.94134 | 34998 ft | 475 kts | 126° |
| 2026-05-04 13:47 | 47.50215 | 16.02087 | 34999 ft | 476 kts | 125° |
| 2026-05-04 13:48 | 47.46404 | 16.10091 | 35005 ft | 476 kts | 126° |
| 2026-05-04 13:48 | 47.42581 | 16.18098 | 35007 ft | 477 kts | 126° |
| 2026-05-04 13:49 | 47.38748 | 16.26104 | 34999 ft | 477 kts | 126° |
| 2026-05-04 13:49 | 47.34911 | 16.34094 | 35011 ft | 477 kts | 126° |
| 2026-05-04 13:50 | 47.31071 | 16.42073 | 34999 ft | 476 kts | 126° |
| 2026-05-04 13:50 | 47.27217 | 16.49915 | 35006 ft | 475 kts | 128° |
| 2026-05-04 13:51 | 47.23090 | 16.57497 | 35011 ft | 473 kts | 129° |
| 2026-05-04 13:51 | 47.18914 | 16.64968 | 35012 ft | 472 kts | 129° |
| 2026-05-04 13:52 | 47.12702 | 16.76176 | 35025 ft | 471 kts | 129° |
| 2026-05-04 13:53 | 47.08581 | 16.83642 | 35031 ft | 470 kts | 129° |
| 2026-05-04 13:53 | 47.04459 | 16.91093 | 35031 ft | 470 kts | 129° |
| 2026-05-04 13:54 | 46.98320 | 17.02146 | 35031 ft | 471 kts | 129° |
| 2026-05-04 13:55 | 46.92114 | 17.13273 | 35047 ft | 471 kts | 129° |
| 2026-05-04 13:55 | 46.85879 | 17.24406 | 35041 ft | 472 kts | 129° |
| 2026-05-04 13:56 | 46.81697 | 17.31849 | 35045 ft | 471 kts | 129° |
| 2026-05-04 13:57 | 46.75469 | 17.42897 | 35054 ft | 470 kts | 129° |
| 2026-05-04 13:58 | 46.67110 | 17.57656 | 35057 ft | 471 kts | 129° |
| 2026-05-04 13:58 | 46.60876 | 17.68615 | 35059 ft | 469 kts | 128° |
| 2026-05-04 13:59 | 46.57497 | 17.74795 | 35061 ft | 468 kts | 127° |
| 2026-05-04 14:00 | 46.51549 | 17.86029 | 35064 ft | 467 kts | 127° |
| 2026-05-04 14:00 | 46.45583 | 17.97191 | 35066 ft | 468 kts | 127° |
| 2026-05-04 14:01 | 46.41582 | 18.04618 | 35074 ft | 469 kts | 127° |
| 2026-05-04 14:02 | 46.35531 | 18.15809 | 35065 ft | 470 kts | 127° |
| 2026-05-04 14:02 | 46.31496 | 18.23247 | 35071 ft | 471 kts | 127° |
| 2026-05-04 14:03 | 46.27433 | 18.30719 | 35072 ft | 472 kts | 127° |
| 2026-05-04 14:03 | 46.23382 | 18.38148 | 35063 ft | 473 kts | 127° |
| 2026-05-04 14:04 | 46.17272 | 18.49316 | 35072 ft | 473 kts | 127° |
| 2026-05-04 14:04 | 46.13207 | 18.56724 | 35074 ft | 472 kts | 127° |
| 2026-05-04 14:05 | 46.07089 | 18.67834 | 34436 ft | 474 kts | 127° |
| 2026-05-04 14:05 | 46.05035 | 18.71554 | 33764 ft | 473 kts | 127° |
| 2026-05-04 14:06 | 46.03006 | 18.75223 | 33029 ft | 473 kts | 127° |
| 2026-05-04 14:06 | 46.00950 | 18.78939 | 32298 ft | 473 kts | 127° |
| 2026-05-04 14:06 | 45.98889 | 18.82660 | 31553 ft | 474 kts | 127° |
| 2026-05-04 14:06 | 45.96841 | 18.86350 | 30803 ft | 475 kts | 127° |
| 2026-05-04 14:07 | 45.94753 | 18.90071 | 30002 ft | 477 kts | 129° |
| 2026-05-04 14:07 | 45.92418 | 18.93462 | 29060 ft | 479 kts | 138° |
| 2026-05-04 14:07 | 45.89761 | 18.96304 | 28197 ft | 480 kts | 145° |
| 2026-05-04 14:07 | 45.87046 | 18.99111 | 27434 ft | 476 kts | 142° |
| 2026-05-04 14:08 | 45.84459 | 19.02023 | 26776 ft | 471 kts | 140° |
| 2026-05-04 14:08 | 45.81947 | 19.04934 | 26187 ft | 465 kts | 140° |
| 2026-05-04 14:08 | 45.79440 | 19.07840 | 25600 ft | 460 kts | 140° |
| 2026-05-04 14:08 | 45.76935 | 19.10711 | 24997 ft | 455 kts | 140° |
| 2026-05-04 14:09 | 45.72008 | 19.16258 | 23835 ft | 447 kts | 141° |
| 2026-05-04 14:09 | 45.69590 | 19.18948 | 23203 ft | 443 kts | 141° |
| 2026-05-04 14:10 | 45.64776 | 19.24276 | 21923 ft | 434 kts | 141° |
| 2026-05-04 14:10 | 45.62399 | 19.26899 | 21316 ft | 429 kts | 141° |
| 2026-05-04 14:10 | 45.60035 | 19.29508 | 20712 ft | 425 kts | 141° |
| 2026-05-04 14:10 | 45.57726 | 19.32054 | 20134 ft | 420 kts | 141° |
| 2026-05-04 14:11 | 45.55394 | 19.34624 | 19559 ft | 416 kts | 141° |
| 2026-05-04 14:11 | 45.50858 | 19.39615 | 18469 ft | 408 kts | 141° |
| 2026-05-04 14:11 | 45.48633 | 19.42058 | 17868 ft | 405 kts | 141° |
| 2026-05-04 14:12 | 45.46404 | 19.44505 | 17257 ft | 401 kts | 140° |
| 2026-05-04 14:12 | 45.44218 | 19.46904 | 16661 ft | 398 kts | 141° |
| 2026-05-04 14:12 | 45.39876 | 19.51656 | 15502 ft | 392 kts | 141° |
| 2026-05-04 14:13 | 45.37729 | 19.54002 | 15236 ft | 381 kts | 141° |
| 2026-05-04 14:13 | 45.35684 | 19.56233 | 15139 ft | 366 kts | 141° |
| 2026-05-04 14:13 | 45.33690 | 19.58406 | 15044 ft | 352 kts | 140° |
| 2026-05-04 14:13 | 45.31771 | 19.60496 | 14966 ft | 340 kts | 141° |
| 2026-05-04 14:14 | 45.29944 | 19.62486 | 14884 ft | 328 kts | 141° |
| 2026-05-04 14:14 | 45.26493 | 19.66243 | 14461 ft | 302 kts | 140° |
| 2026-05-04 14:14 | 45.24848 | 19.68029 | 14074 ft | 298 kts | 140° |
| 2026-05-04 14:15 | 45.21566 | 19.71593 | 13090 ft | 294 kts | 140° |
| 2026-05-04 14:15 | 45.18345 | 19.75085 | 12212 ft | 289 kts | 140° |
| 2026-05-04 14:16 | 45.15165 | 19.78531 | 11301 ft | 285 kts | 140° |
| 2026-05-04 14:16 | 45.13598 | 19.80225 | 10878 ft | 284 kts | 140° |
| 2026-05-04 14:17 | 45.10495 | 19.83576 | 10094 ft | 279 kts | 140° |
| 2026-05-04 14:17 | 45.08943 | 19.85251 | 9616 ft | 277 kts | 140° |
| 2026-05-04 14:17 | 45.05908 | 19.88523 | 8757 ft | 272 kts | 140° |
| 2026-05-04 14:18 | 45.04423 | 19.90124 | 8341 ft | 269 kts | 141° |
| 2026-05-04 14:18 | 45.01464 | 19.93307 | 7482 ft | 264 kts | 142° |
| 2026-05-04 14:19 | 44.98613 | 19.96369 | 6914 ft | 251 kts | 142° |
| 2026-05-04 14:19 | 44.97267 | 19.97813 | 6784 ft | 238 kts | 143° |
| 2026-05-04 14:19 | 44.95958 | 19.99221 | 6485 ft | 233 kts | 141° |
| 2026-05-04 14:19 | 44.94926 | 20.00972 | 6004 ft | 232 kts | 121° |
| 2026-05-04 14:20 | 44.94130 | 20.02922 | 5452 ft | 232 kts | 122° |
| 2026-05-04 14:20 | 44.93286 | 20.04914 | 4705 ft | 239 kts | 123° |
| 2026-05-04 14:20 | 44.92432 | 20.06950 | 3982 ft | 242 kts | 121° |
| 2026-05-04 14:21 | 44.90779 | 20.10803 | 3304 ft | 218 kts | 123° |
| 2026-05-04 14:21 | 44.89993 | 20.12569 | 3028 ft | 205 kts | 124° |
| 2026-05-04 14:21 | 44.89262 | 20.14213 | 2758 ft | 193 kts | 124° |
| 2026-05-04 14:21 | 44.88573 | 20.15760 | 2514 ft | 182 kts | 123° |
| 2026-05-04 14:22 | 44.87908 | 20.17255 | 2224 ft | 175 kts | 123° |
| 2026-05-04 14:22 | 44.87285 | 20.18651 | 2041 ft | 160 kts | 123° |
| 2026-05-04 14:22 | 44.86726 | 20.19920 | 1894 ft | 153 kts | 123° |
| 2026-05-04 14:22 | 44.86154 | 20.21211 | 1646 ft | 154 kts | 122° |
| 2026-05-04 14:23 | 44.85028 | 20.23742 | 1255 ft | 152 kts | 124° |
| 2026-05-04 14:23 | 44.84473 | 20.24993 | 1035 ft | 148 kts | 123° |
| 2026-05-04 14:23 | 44.83934 | 20.26209 | 830 ft | 147 kts | 123° |
| 2026-05-04 14:24 | 44.83387 | 20.27454 | 659 ft | 148 kts | 124° |
| 2026-05-04 14:24 | 44.82839 | 20.28682 | 428 ft | 148 kts | 124° |
| 2026-05-04 14:24 | 44.82304 | 20.29890 | 329 ft | 136 kts | 122° |
| 2026-05-04 14:24 | 44.81880 | 20.30842 | 332 ft | 93 kts | 123° |
| 2026-05-04 14:25 | 44.81646 | 20.31213 | 332 ft | 33 kts | 169° |
| 2026-05-04 14:25 | 44.81533 | 20.30921 | 332 ft | 22 kts | 298° |
| 2026-05-04 14:25 | 44.81609 | 20.30740 | 332 ft | 21 kts | 301° |
| 2026-05-04 14:26 | 44.81687 | 20.30563 | 333 ft | 21 kts | 301° |
| 2026-05-04 14:26 | 44.81771 | 20.30372 | 330 ft | 24 kts | 302° |
| 2026-05-04 14:26 | 44.81866 | 20.30157 | 331 ft | 27 kts | 302° |
| 2026-05-04 14:26 | 44.81962 | 20.29939 | 327 ft | 23 kts | 302° |
| 2026-05-04 14:27 | 44.82046 | 20.29750 | 326 ft | 21 kts | 302° |
| 2026-05-04 14:27 | 44.82113 | 20.29571 | 329 ft | 21 kts | 269° |
| 2026-05-04 14:27 | 44.82011 | 20.29449 | 327 ft | 20 kts | 213° |
| 2026-05-04 14:27 | 44.81905 | 20.29356 | 326 ft | 12 kts | 212° |
| 2026-05-04 14:28 | 44.81875 | 20.29294 | 328 ft | 7 kts | 287° |
| 2026-05-04 14:28 | 44.81894 | 20.29248 | 327 ft | 2 kts | 302° |
| 2026-05-04 14:28 | 44.81895 | 20.29246 | 327 ft | 0 kts | 303° |